Time;durP1;ratioP1;P1;durP2;ratioP2;P2;SDS_P1;SDS_P2;PMS_P1;PMS_P2;Temp;Humidity;BMP_temperature;BMP_pressure;BME280_temperature;BME280_humidity;BME280_pressure;Samples;Min_cycle;Max_cycle;Signal;HPM_P1;HPM_P2
2023/12/10 00:02:16;;;;;;;25.97;13.33;;;;;;;3.48;100.00;99093.41;5009369;28;20044;-76
2023/12/10 00:04:43;;;;;;;30.63;14.35;;;;;;;3.44;100.00;99094.69;5001216;28;20114;-77
2023/12/10 00:07:08;;;;;;;29.73;15.02;;;;;;;3.41;100.00;99093.19;5009267;28;20574;-78
2023/12/10 00:09:34;;;;;;;24.85;13.00;;;;;;;3.45;100.00;99097.19;5009211;28;20038;-78
2023/12/10 00:11:59;;;;;;;26.52;13.63;;;;;;;3.45;100.00;99096.38;5008933;28;20025;-77
2023/12/10 00:14:25;;;;;;;30.57;14.63;;;;;;;3.43;100.00;99095.69;5004925;28;20021;-77
2023/12/10 00:16:50;;;;;;;26.45;14.00;;;;;;;3.41;100.00;99077.38;4990802;28;20033;-78
2023/12/10 00:19:16;;;;;;;22.05;13.80;;;;;;;3.28;100.00;99080.47;5007433;28;20102;-78
2023/12/10 00:21:41;;;;;;;27.40;14.35;;;;;;;3.28;100.00;99087.53;5022717;28;20396;-77
2023/12/10 00:24:07;;;;;;;24.90;15.23;;;;;;;3.23;100.00;99087.16;4990678;28;20029;-78
2023/12/10 00:26:32;;;;;;;28.50;13.27;;;;;;;3.35;100.00;99078.84;5009139;28;20477;-78
2023/12/10 00:28:58;;;;;;;28.42;14.30;;;;;;;3.22;100.00;99067.88;5008340;28;20029;-77
2023/12/10 00:31:23;;;;;;;32.88;15.00;;;;;;;3.27;100.00;99073.50;5008067;28;20037;-79
2023/12/10 00:33:48;;;;;;;27.95;14.23;;;;;;;3.41;100.00;99084.47;4993142;28;20891;-78
2023/12/10 00:36:15;;;;;;;32.40;13.20;;;;;;;3.34;100.00;99082.44;5012145;28;20095;-77
2023/12/10 00:38:42;;;;;;;25.50;13.60;;;;;;;3.31;100.00;99074.84;5012571;28;20033;-79
2023/12/10 00:41:08;;;;;;;27.58;13.77;;;;;;;3.26;100.00;99069.22;5012281;28;20037;-79
2023/12/10 00:43:33;;;;;;;;;;;;;;;3.30;100.00;99081.13;5012435;28;20623;-79
2023/12/10 00:45:58;;;;;;;28.10;13.20;;;;;;;3.42;100.00;99079.03;4991571;28;20027;-78
2023/12/10 00:48:24;;;;;;;22.83;11.55;;;;;;;3.19;100.00;99070.84;5016925;28;20028;-77
2023/12/10 00:50:49;;;;;;;19.55;11.20;;;;;;;3.13;100.00;99068.81;5007307;28;20014;-77
2023/12/10 00:53:15;;;;;;;22.05;12.20;;;;;;;3.21;100.00;99070.66;5009135;28;20061;-78
2023/12/10 00:55:40;;;;;;;25.48;11.20;;;;;;;3.10;100.00;99069.94;5028497;28;20096;-78
2023/12/10 00:58:06;;;;;;;21.27;11.80;;;;;;;3.15;100.00;99066.84;5007224;28;20040;-78
2023/12/10 01:00:31;;;;;;;20.67;11.20;;;;;;;3.25;100.00;99070.19;5004746;28;20097;-78
2023/12/10 01:02:57;;;;;;;20.67;11.13;;;;;;;3.21;100.00;99075.94;4979657;28;20040;-78
2023/12/10 01:05:22;;;;;;;19.30;11.50;;;;;;;3.30;100.00;99075.00;5000636;28;20503;-78
2023/12/10 01:07:47;;;;;;;21.13;11.25;;;;;;;3.20;100.00;99077.75;5010139;28;20044;-79
2023/12/10 01:10:13;;;;;;;21.13;11.32;;;;;;;3.09;100.00;99067.47;5009145;28;20029;-79
2023/12/10 01:12:39;;;;;;;21.88;11.88;;;;;;;3.25;100.00;99067.56;4994988;28;20262;-79
2023/12/10 01:15:05;;;;;;;22.50;12.85;;;;;;;3.08;100.00;99060.53;5012830;28;20092;-78
2023/12/10 01:17:31;;;;;;;;;;;;;;;3.08;100.00;99069.28;4988867;28;20120;-78
2023/12/10 01:19:59;;;;;;;25.65;12.60;;;;;;;2.97;100.00;99053.72;4996792;28;19920;-78
2023/12/10 01:22:24;;;;;;;25.75;12.73;;;;;;;2.98;100.00;99065.09;5012449;28;20844;-79
2023/12/10 01:24:51;;;;;;;24.50;12.80;;;;;;;2.89;100.00;99065.03;5013143;28;20041;-79
2023/12/10 01:27:17;;;;;;;29.00;13.60;;;;;;;3.05;100.00;99077.50;5030929;28;20036;-79
2023/12/10 01:29:42;;;;;;;26.60;12.95;;;;;;;3.11;100.00;99083.97;5013570;28;20120;-79
2023/12/10 01:32:10;;;;;;;25.40;12.77;;;;;;;2.94;100.00;99078.56;5012814;28;20125;-79
2023/12/10 01:34:36;;;;;;;25.38;12.88;;;;;;;2.90;100.00;99077.25;5009311;28;20033;-79
2023/12/10 01:37:01;;;;;;;25.33;13.40;;;;;;;2.87;100.00;99080.19;5013857;28;20104;-79
2023/12/10 01:39:27;;;;;;;32.13;14.45;;;;;;;2.89;100.00;99078.22;5004822;28;20124;-78
2023/12/10 01:41:52;;;;;;;24.75;13.38;;;;;;;2.97;100.00;99080.06;5008556;28;20353;-78
2023/12/10 01:44:18;;;;;;;25.95;12.68;;;;;;;3.10;100.00;99104.22;5012924;28;20053;-77
2023/12/10 01:46:45;;;;;;;22.10;11.38;;;;;;;2.96;100.00;99095.06;5028815;28;20491;-78
2023/12/10 01:49:11;;;;;;;22.65;11.60;;;;;;;2.89;100.00;99095.84;4996225;28;20491;-78
2023/12/10 01:51:37;;;;;;;26.10;12.75;;;;;;;3.06;100.00;99099.44;5023766;28;20025;-78
2023/12/10 01:54:02;;;;;;;28.92;12.30;;;;;;;2.85;100.00;99097.94;5016414;28;20027;-78
2023/12/10 01:56:30;;;;;;;22.00;12.10;;;;;;;2.80;100.00;99094.94;5028726;28;20092;-78
2023/12/10 01:58:55;;;;;;;24.77;12.38;;;;;;;2.98;100.00;99099.38;4996423;28;20135;-78
2023/12/10 02:01:21;;;;;;;29.45;12.80;;;;;;;2.77;100.00;99090.00;5012839;28;20192;-78
2023/12/10 02:03:47;;;;;;;25.83;13.48;;;;;;;2.89;100.00;99095.84;4991141;28;20036;-79
2023/12/10 02:06:12;;;;;;;28.70;14.02;;;;;;;2.78;100.00;99099.53;4995794;28;20029;-79
2023/12/10 02:08:39;;;;;;;24.50;13.07;;;;;;;2.91;100.00;99102.63;5002755;28;20491;-78
2023/12/10 02:11:04;;;;;;;31.10;15.20;;;;;;;2.95;100.00;99108.44;5012192;28;20033;-79
2023/12/10 02:13:30;;;;;;;23.33;12.93;;;;;;;2.88;100.00;99105.56;4979125;28;20428;-78
2023/12/10 02:15:55;;;;;;;28.60;14.45;;;;;;;2.93;100.00;99113.84;5029571;28;20112;-79
2023/12/10 02:18:21;;;;;;;25.88;13.32;;;;;;;2.92;100.00;99112.16;4995293;28;20041;-78
2023/12/10 02:20:48;;;;;;;33.85;16.17;;;;;;;2.90;100.00;99115.94;5012263;28;20040;-77
2023/12/10 02:23:35;;;;;;;33.17;14.80;;;;;;;2.82;100.00;99110.63;5011335;28;20032;-78
2023/12/10 02:26:01;;;;;;;29.98;16.02;;;;;;;2.88;100.00;99113.47;5011935;28;20056;-77
2023/12/10 02:28:27;;;;;;;32.83;14.70;;;;;;;2.87;100.00;99121.53;5003390;28;20488;-77
2023/12/10 02:30:52;;;;;;;32.15;15.18;;;;;;;3.09;100.00;99136.03;4988058;28;20180;-77
2023/12/10 02:33:18;;;;;;;27.27;13.65;;;;;;;3.05;100.00;99137.34;4999844;28;20042;-79
2023/12/10 02:35:43;;;;;;;33.13;15.02;;;;;;;3.04;100.00;99135.66;5000501;28;20036;-78
2023/12/10 02:38:09;;;;;;;25.05;14.05;;;;;;;2.96;100.00;99121.44;4980221;28;20754;-79
2023/12/10 02:40:34;;;;;;;30.97;14.70;;;;;;;3.01;100.00;99131.53;5008877;28;20029;-79
2023/12/10 02:43:00;;;;;;;34.97;14.90;;;;;;;3.14;100.00;99133.78;5008898;28;20307;-79
2023/12/10 02:45:26;;;;;;;29.73;15.50;;;;;;;2.87;100.00;99119.72;4995172;28;20284;-78
2023/12/10 02:47:51;;;;;;;31.55;16.70;;;;;;;2.86;100.00;99120.72;5011181;28;20512;-78
2023/12/10 02:50:16;;;;;;;24.85;13.32;;;;;;;2.85;100.00;99123.50;5006345;28;20059;-78
2023/12/10 02:52:42;;;;;;;31.50;14.80;;;;;;;2.95;100.00;99129.53;5009521;28;20108;-79
2023/12/10 02:55:10;;;;;;;36.83;16.00;;;;;;;3.18;100.00;99140.38;4983049;28;20445;-78
2023/12/10 02:57:36;;;;;;;26.73;14.57;;;;;;;3.03;100.00;99141.94;5010405;28;20025;-78
2023/12/10 03:00:02;;;;;;;27.88;13.05;;;;;;;3.10;100.00;99141.16;4994794;28;20044;-78
2023/12/10 03:02:27;;;;;;;;;;;;;;;3.21;100.00;99150.63;5003310;28;20030;-78
2023/12/10 03:04:53;;;;;;;28.58;13.45;;;;;;;3.11;100.00;99136.69;4991785;28;19940;-77
2023/12/10 03:07:18;;;;;;;23.90;13.57;;;;;;;2.93;100.00;99132.28;4999084;28;20778;-79
2023/12/10 03:09:44;;;;;;;23.38;12.90;;;;;;;3.13;100.00;99124.19;5005208;28;20059;-78
2023/12/10 03:12:10;;;;;;;26.80;12.75;;;;;;;3.01;100.00;99125.44;4991224;28;20116;-78
2023/12/10 03:14:35;;;;;;;22.90;11.90;;;;;;;3.13;100.00;99130.28;5010931;28;20485;-78
2023/12/10 03:17:00;;;;;;;21.15;12.05;;;;;;;3.00;100.00;99126.41;5010699;28;20503;-78
2023/12/10 03:19:26;;;;;;;21.10;11.27;;;;;;;3.07;100.00;99120.38;5027950;28;20441;-78
2023/12/10 03:21:51;;;;;;;25.75;11.38;;;;;;;3.10;100.00;99121.88;5021738;28;20030;-79
2023/12/10 03:27:01;;;;;;;22.00;11.18;;;;;;;3.22;100.00;99135.63;5001986;28;20131;-78
2023/12/10 03:29:26;;;;;;;26.55;12.60;;;;;;;3.16;100.00;99137.06;5007730;28;20108;-78
2023/12/10 03:31:52;;;;;;;23.75;11.82;;;;;;;3.07;100.00;99133.56;5004426;28;20021;-78
2023/12/10 03:34:17;;;;;;;24.10;12.02;;;;;;;3.26;100.00;99143.09;5025932;28;20392;-78
2023/12/10 03:36:42;;;;;;;20.55;11.15;;;;;;;3.26;100.00;99142.25;5010310;28;20079;-77
2023/12/10 03:39:08;;;;;;;28.23;12.45;;;;;;;3.10;100.00;99138.50;5018296;28;20041;-77
2023/12/10 03:41:33;;;;;;;23.20;12.45;;;;;;;3.22;100.00;99147.00;5009810;28;20112;-78
2023/12/10 03:43:59;;;;;;;27.93;13.17;;;;;;;3.16;100.00;99140.56;5025907;28;20040;-78
2023/12/10 03:46:24;;;;;;;23.10;11.83;;;;;;;3.11;100.00;99141.97;5010180;28;20290;-79
2023/12/10 03:48:51;;;;;;;23.73;11.47;;;;;;;3.06;100.00;99142.44;5010169;28;20302;-79
2023/12/10 03:51:16;;;;;;;24.23;12.63;;;;;;;3.29;100.00;99155.13;5009052;28;20276;-78
2023/12/10 03:53:42;;;;;;;29.95;14.48;;;;;;;3.11;100.00;99148.09;5020782;28;20715;-79
2023/12/10 03:56:09;;;;;;;22.92;11.68;;;;;;;3.29;100.00;99150.69;5026814;28;20033;-79
2023/12/10 03:58:35;;;;;;;26.58;12.38;;;;;;;3.31;100.00;99161.09;5009955;28;20029;-81
2023/12/10 04:01:00;;;;;;;25.30;12.55;;;;;;;3.17;100.00;99158.00;5001493;28;20030;-80
2023/12/10 04:03:26;;;;;;;23.02;12.02;;;;;;;3.23;100.00;99171.56;5016164;28;20532;-80
2023/12/10 04:05:51;;;;;;;25.50;12.88;;;;;;;3.25;100.00;99167.78;4988805;28;20453;-80
2023/12/10 04:08:17;;;;;;;23.67;13.57;;;;;;;3.35;100.00;99163.25;5030325;28;20041;-79
2023/12/10 04:10:42;;;;;;;27.20;14.30;;;;;;;3.07;100.00;99151.19;5000845;28;20033;-79
2023/12/10 04:13:08;;;;;;;29.02;14.25;;;;;;;3.27;100.00;99154.44;5016610;28;20714;-80
2023/12/10 04:15:33;;;;;;;29.05;14.35;;;;;;;3.24;100.00;99170.59;5013610;28;20533;-80
2023/12/10 04:17:59;;;;;;;30.23;14.60;;;;;;;3.36;100.00;99180.72;5005443;28;20037;-80
2023/12/10 04:20:25;;;;;;;27.75;13.23;;;;;;;3.33;100.00;99174.94;5015622;28;20288;-80
2023/12/10 04:22:50;;;;;;;31.88;15.77;;;;;;;3.44;100.00;99172.06;5016169;28;20091;-80
2023/12/10 04:25:34;;;;;;;33.88;14.60;;;;;;;3.43;100.00;99175.66;5034293;28;20052;-80
2023/12/10 04:28:18;;;;;;;28.00;14.35;;;;;;;3.42;100.00;99170.53;5017353;28;20412;-80
2023/12/10 04:31:02;;;;;;;32.28;14.48;;;;;;;3.37;100.00;99182.41;5024978;28;20404;-80
2023/12/10 04:33:46;;;;;;;39.50;16.15;;;;;;;3.41;100.00;99188.19;5019185;28;20045;-79
2023/12/10 04:36:30;;;;;;;31.35;15.63;;;;;;;3.34;100.00;99181.88;5018140;28;20100;-80
2023/12/10 04:39:15;;;;;;;34.40;15.98;;;;;;;3.32;100.00;99184.66;5019067;28;20052;-79
2023/12/10 04:42:00;;;;;;;34.42;16.48;;;;;;;3.37;100.00;99186.81;5019104;28;20423;-79
2023/12/10 04:44:43;;;;;;;34.25;17.20;;;;;;;3.43;100.00;99185.41;5019681;28;20600;-80
2023/12/10 04:47:27;;;;;;;40.17;18.50;;;;;;;3.40;100.00;99191.00;5018584;28;20690;-79
2023/12/10 04:50:12;;;;;;;44.78;18.40;;;;;;;3.51;100.00;99198.63;5011427;28;20095;-80
2023/12/10 04:52:55;;;;;;;51.75;22.75;;;;;;;3.52;100.00;99201.13;5019192;28;20044;-80
2023/12/10 04:55:39;;;;;;;41.63;18.52;;;;;;;3.42;100.00;99194.28;4998736;28;20121;-80
2023/12/10 04:58:23;;;;;;;43.28;20.23;;;;;;;3.50;100.00;99202.25;5006107;28;20049;-79
2023/12/10 05:01:07;;;;;;;55.17;21.75;;;;;;;3.67;100.00;99204.00;5009227;28;20048;-79
2023/12/10 05:03:51;;;;;;;55.33;21.33;;;;;;;3.67;100.00;99208.47;5004401;28;20052;-80
2023/12/10 05:06:35;;;;;;;52.20;21.67;;;;;;;3.65;100.00;99200.69;5022289;28;20135;-80
2023/12/10 05:09:03;;;;;;;47.15;20.83;;;;;;;3.83;100.00;99210.38;5018693;28;20089;-79
2023/12/10 05:11:28;;;;;;;42.72;19.30;;;;;;;3.95;100.00;99214.41;5015970;28;20018;-80
2023/12/10 05:13:54;;;;;;;53.00;22.35;;;;;;;3.96;100.00;99214.25;5004785;28;20404;-80
2023/12/10 05:16:19;;;;;;;50.13;21.25;;;;;;;4.01;100.00;99206.69;5006077;28;20116;-80
2023/12/10 05:18:45;;;;;;;53.17;22.67;;;;;;;3.88;100.00;99202.81;5015783;28;20031;-79
2023/12/10 05:21:10;;;;;;;54.57;21.43;;;;;;;3.86;100.00;99207.41;5003244;28;20363;-79
2023/12/10 05:23:35;;;;;;;46.67;21.50;;;;;;;3.93;100.00;99208.44;5001178;28;20292;-80
2023/12/10 05:26:01;;;;;;;56.90;22.57;;;;;;;3.97;100.00;99207.97;4973045;28;20277;-79
2023/12/10 05:28:26;;;;;;;58.90;22.17;;;;;;;4.12;100.00;99210.03;5003219;28;20064;-79
2023/12/10 05:30:51;;;;;;;54.47;23.53;;;;;;;4.09;100.00;99208.53;4994017;28;20440;-80
2023/12/10 05:33:17;;;;;;;58.37;23.00;;;;;;;4.02;100.00;99202.22;5010495;28;20287;-80
2023/12/10 05:35:42;;;;;;;53.23;21.17;;;;;;;4.09;100.00;99213.81;5012694;28;20581;-79
2023/12/10 05:38:09;;;;;;;58.87;22.47;;;;;;;4.12;100.00;99210.88;5028113;28;20268;-80
2023/12/10 05:40:35;;;;;;;57.30;22.45;;;;;;;4.09;100.00;99205.88;5007080;28;20029;-79
2023/12/10 05:43:00;;;;;;;60.45;22.92;;;;;;;4.09;100.00;99200.59;5012075;28;20461;-78
2023/12/10 05:45:27;;;;;;;59.30;23.95;;;;;;;4.05;100.00;99206.34;5029448;28;20344;-79
2023/12/10 05:47:53;;;;;;;53.55;21.77;;;;;;;4.10;100.00;99212.84;5028287;28;20463;-79
2023/12/10 05:50:18;;;;;;;62.17;22.40;;;;;;;4.03;100.00;99214.47;5011110;28;20263;-80
2023/12/10 05:52:44;;;;;;;55.50;21.03;;;;;;;4.04;100.00;99213.47;5011452;28;20156;-80
2023/12/10 05:55:09;;;;;;;51.83;21.83;;;;;;;4.07;100.00;99218.41;5012023;28;20291;-78
2023/12/10 05:57:35;;;;;;;55.55;19.75;;;;;;;3.93;100.00;99208.44;5011532;28;20507;-79
2023/12/10 06:00:00;;;;;;;70.40;21.38;;;;;;;4.10;100.00;99219.94;5003961;28;20551;-80
2023/12/10 06:02:26;;;;;;;61.05;20.77;;;;;;;4.10;100.00;99220.75;5005556;28;20030;-79
2023/12/10 06:04:52;;;;;;;88.40;24.13;;;;;;;4.09;100.00;99213.81;5011436;28;20041;-80
2023/12/10 06:07:17;;;;;;;57.28;22.10;;;;;;;4.11;100.00;99216.31;5011508;28;20021;-80
2023/12/10 06:09:43;;;;;;;61.28;22.42;;;;;;;4.14;100.00;99216.78;5003580;28;20370;-80
2023/12/10 06:12:09;;;;;;;58.97;20.48;;;;;;;4.04;100.00;99210.00;5029134;28;20045;-79
2023/12/10 06:14:34;;;;;;;54.15;20.63;;;;;;;4.08;100.00;99220.09;4986794;28;20099;-79
2023/12/10 06:17:00;;;;;;;50.08;19.98;;;;;;;4.17;100.00;99220.97;5011583;28;20037;-79
2023/12/10 06:19:26;;;;;;;64.22;20.30;;;;;;;4.16;100.00;99224.56;5003073;28;20069;-79
2023/12/10 06:21:51;;;;;;;58.47;19.95;;;;;;;4.10;100.00;99226.03;5011017;28;20021;-79
2023/12/10 06:24:17;;;;;;;58.53;21.40;;;;;;;4.29;100.00;99232.06;4991457;28;20042;-79
2023/12/10 06:26:42;;;;;;;53.37;19.40;;;;;;;4.26;100.00;99232.38;4992527;28;20045;-79
2023/12/10 06:29:07;;;;;;;58.33;19.60;;;;;;;4.31;100.00;99236.22;5006935;28;20426;-80
2023/12/10 06:31:33;;;;;;;61.75;18.85;;;;;;;4.34;100.00;99235.88;5007595;28;20276;-79
2023/12/10 06:33:58;;;;;;;68.73;20.40;;;;;;;4.39;100.00;99238.03;4980887;28;20803;-80
2023/12/10 06:36:23;;;;;;;55.53;20.65;;;;;;;4.42;100.00;99238.56;5011172;28;20052;-79
2023/12/10 06:38:49;;;;;;;56.37;18.33;;;;;;;4.39;100.00;99243.34;5011599;28;20025;-78
2023/12/10 06:41:15;;;;;;;58.40;19.08;;;;;;;4.37;100.00;99232.91;5010711;28;20443;-79
2023/12/10 06:43:40;;;;;;;45.13;16.55;;;;;;;4.46;100.00;99239.06;5010807;28;20544;-79
2023/12/10 06:46:06;;;;;;;49.65;17.65;;;;;;;4.46;100.00;99244.34;5007385;28;20030;-80
2023/12/10 06:48:33;;;;;;;65.93;19.27;;;;;;;4.50;100.00;99237.75;4987638;28;20036;-80
2023/12/10 06:51:00;;;;;;;54.25;17.30;;;;;;;4.65;100.00;99248.53;5011074;28;20280;-80
2023/12/10 06:53:26;;;;;;;46.75;15.98;;;;;;;4.54;100.00;99236.47;5005233;28;20026;-80
2023/12/10 06:55:51;;;;;;;49.97;15.70;;;;;;;4.56;100.00;99242.38;5006017;28;20048;-80
2023/12/10 06:58:17;;;;;;;56.05;17.75;;;;;;;4.63;100.00;99243.41;5024882;28;20041;-81
2023/12/10 07:00:42;;;;;;;45.07;16.13;;;;;;;4.71;100.00;99249.72;5005529;28;20131;-81
2023/12/10 07:03:07;;;;;;;53.20;15.97;;;;;;;4.71;100.00;99250.53;5011336;28;20291;-81
2023/12/10 07:05:33;;;;;;;52.58;16.92;;;;;;;4.67;100.00;99240.44;5010897;28;20076;-81
2023/12/10 07:07:58;;;;;;;54.10;15.33;;;;;;;4.67;100.00;99243.91;5008590;28;20035;-81
2023/12/10 07:10:23;;;;;;;55.47;18.43;;;;;;;4.61;100.00;99250.69;4997569;28;20289;-81
2023/12/10 07:12:53;;;;;;;58.53;16.00;;;;;;;4.61;100.00;99252.47;4996536;28;20037;-82
2023/12/10 07:15:18;;;;;;;59.70;17.70;;;;;;;4.75;100.00;99251.88;4988155;28;20042;-81
2023/12/10 07:17:44;;;;;;;58.97;14.48;;;;;;;4.71;100.00;99255.84;5012313;28;20028;-81
2023/12/10 07:20:10;;;;;;;58.65;16.67;;;;;;;4.65;100.00;99245.88;4972013;28;20530;-81
2023/12/10 07:22:35;;;;;;;48.55;15.23;;;;;;;4.73;100.00;99260.94;5008530;28;20124;-80
2023/12/10 07:25:04;;;;;;;46.60;15.57;;;;;;;4.77;100.00;99257.81;5002404;28;20055;-81
2023/12/10 07:27:30;;;;;;;66.35;14.88;;;;;;;4.63;100.00;99255.78;5027956;28;20284;-80
2023/12/10 07:29:56;;;;;;;72.75;18.05;;;;;;;4.80;100.00;99260.16;5011053;28;20024;-81
2023/12/10 07:32:21;;;;;;;43.15;13.00;;;;;;;4.79;100.00;99260.31;5010484;28;20041;-81
2023/12/10 07:34:46;;;;;;;36.20;12.48;;;;;;;4.84;100.00;99260.66;5011621;28;20025;-82
2023/12/10 07:37:12;;;;;;;50.40;12.00;;;;;;;4.93;100.00;99278.19;5011247;28;20104;-81
2023/12/10 07:39:37;;;;;;;41.67;13.60;;;;;;;4.90;100.00;99267.94;5011078;28;20043;-81
2023/12/10 07:42:02;;;;;;;44.38;10.43;;;;;;;5.00;100.00;99275.72;5028318;28;20030;-82
2023/12/10 07:44:28;;;;;;;44.83;12.45;;;;;;;4.99;100.00;99274.91;5004679;28;20041;-81
2023/12/10 07:46:53;;;;;;;41.50;9.43;;;;;;;5.01;100.00;99278.22;5011460;28;20037;-81
2023/12/10 07:49:19;;;;;;;45.10;10.90;;;;;;;4.97;100.00;99281.34;5011143;28;20280;-83
2023/12/10 07:51:44;;;;;;;34.27;9.93;;;;;;;5.17;100.00;99287.97;5005794;28;20037;-82
2023/12/10 07:54:10;;;;;;;40.57;11.93;;;;;;;5.10;100.00;99278.22;5012745;28;20794;-82
2023/12/10 07:56:35;;;;;;;32.85;10.25;;;;;;;5.21;100.00;99285.84;4996310;28;20033;-82
2023/12/10 07:59:01;;;;;;;34.80;8.20;;;;;;;5.22;100.00;99279.56;4975323;28;20204;-80
2023/12/10 08:01:26;;;;;;;38.85;10.23;;;;;;;5.38;100.00;99284.03;4982540;28;20044;-81
2023/12/10 08:03:51;;;;;;;42.27;12.37;;;;;;;5.23;100.00;99271.47;4986435;28;20038;-81
2023/12/10 08:06:17;;;;;;;61.05;12.48;;;;;;;5.41;100.00;99281.06;4999210;28;20045;-81
2023/12/10 08:08:42;;;;;;;47.75;12.73;;;;;;;5.32;100.00;99276.78;4994241;28;20025;-82
2023/12/10 08:11:08;;;;;;;45.80;12.03;;;;;;;5.40;100.00;99288.16;4984314;28;20220;-82
2023/12/10 08:13:33;;;;;;;50.13;10.23;;;;;;;5.52;100.00;99285.19;4975146;28;20281;-82
2023/12/10 08:15:58;;;;;;;42.30;12.70;;;;;;;5.43;100.00;99281.72;4991530;28;20034;-83
2023/12/10 08:18:24;;;;;;;58.23;20.70;;;;;;;5.56;100.00;99294.47;4983152;28;20281;-83
2023/12/10 08:20:49;;;;;;;49.88;10.25;;;;;;;5.51;100.00;99279.09;4996473;28;20388;-82
2023/12/10 08:23:15;;;;;;;33.37;7.77;;;;;;;5.55;100.00;99280.41;4987937;28;20076;-82
2023/12/10 08:25:40;;;;;;;31.48;8.50;;;;;;;5.44;100.00;99281.56;4967824;28;20034;-82
2023/12/10 08:28:06;;;;;;;33.50;8.52;;;;;;;5.51;100.00;99292.31;5002822;28;20034;-82
2023/12/10 08:30:31;;;;;;;37.90;9.30;;;;;;;5.42;100.00;99283.53;4983477;28;20502;-82
2023/12/10 08:32:57;;;;;;;47.15;8.30;;;;;;;5.46;100.00;99298.09;5000111;28;20291;-82
2023/12/10 08:35:23;;;;;;;37.25;7.13;;;;;;;5.66;100.00;99303.06;4988813;28;20038;-82
2023/12/10 08:37:48;;;;;;;29.92;7.30;;;;;;;5.79;100.00;99303.41;4984373;28;20207;-82
2023/12/10 08:40:14;;;;;;;31.80;8.45;;;;;;;5.69;100.00;99308.06;4984492;28;20116;-83
2023/12/10 08:42:40;;;;;;;32.58;6.65;;;;;;;5.74;100.00;99304.91;5005081;28;20034;-82
2023/12/10 08:45:06;;;;;;;40.42;10.55;;;;;;;5.91;100.00;99309.19;4993563;28;20203;-83
2023/12/10 08:47:31;;;;;;;40.95;8.27;;;;;;;5.70;100.00;99304.41;4986273;28;20042;-82
2023/12/10 08:49:57;;;;;;;28.63;7.33;;;;;;;5.72;100.00;99307.72;4987883;28;20441;-82
2023/12/10 08:52:23;;;;;;;31.42;8.18;;;;;;;5.70;100.00;99305.22;4984408;28;20034;-82
2023/12/10 08:54:48;;;;;;;38.95;9.35;;;;;;;5.78;100.00;99307.03;4984663;28;20124;-82
2023/12/10 08:57:14;;;;;;;31.30;6.97;;;;;;;5.82;100.00;99313.66;5010435;28;20106;-83
2023/12/10 08:59:39;;;;;;;42.38;8.02;;;;;;;5.69;100.00;99308.06;4985190;28;20030;-82
2023/12/10 09:02:05;;;;;;;36.58;7.00;;;;;;;5.70;100.00;99315.00;4993869;28;20584;-82
2023/12/10 09:04:30;;;;;;;36.75;8.63;;;;;;;5.87;100.00;99316.63;4993719;28;20144;-82
2023/12/10 09:06:56;;;;;;;40.07;7.90;;;;;;;5.86;100.00;99316.81;4987676;28;20041;-82
2023/12/10 09:09:21;;;;;;;31.33;5.37;;;;;;;5.74;100.00;99313.66;4988800;28;20363;-82
2023/12/10 09:11:47;;;;;;;25.83;6.80;;;;;;;5.71;100.00;99311.34;4992518;28;20030;-82
2023/12/10 09:14:13;;;;;;;36.25;6.85;;;;;;;5.83;100.00;99314.47;4974163;28;20281;-82
2023/12/10 09:16:39;;;;;;;35.70;7.40;;;;;;;5.82;100.00;99321.59;4969087;28;20098;-83
2023/12/10 09:19:04;;;;;;;34.20;7.00;;;;;;;5.78;100.00;99316.78;4991394;28;20034;-83
2023/12/10 09:21:29;;;;;;;30.48;6.07;;;;;;;5.69;100.00;99310.69;4976125;28;20545;-83
2023/12/10 09:23:56;;;;;;;41.07;7.57;;;;;;;5.78;100.00;99316.78;4990016;28;20042;-82
2023/12/10 09:26:21;;;;;;;30.73;6.35;;;;;;;5.66;100.00;99322.41;4987584;28;20285;-82
2023/12/10 09:28:47;;;;;;;36.83;6.80;;;;;;;5.60;100.00;99320.47;4993929;28;20404;-82
2023/12/10 09:31:12;;;;;;;34.33;8.48;;;;;;;5.72;100.00;99329.72;4977416;28;20026;-82
2023/12/10 09:33:38;;;;;;;36.67;7.33;;;;;;;5.84;100.00;99332.03;4985795;28;20742;-82
2023/12/10 09:36:03;;;;;;;38.23;8.67;;;;;;;5.76;100.00;99335.53;4993486;28;20779;-82
2023/12/10 09:38:29;;;;;;;25.25;7.60;;;;;;;5.83;100.00;99339.16;4994146;28;20030;-82
2023/12/10 09:40:54;;;;;;;31.05;10.52;;;;;;;5.78;100.00;99344.09;5000022;28;20378;-83
2023/12/10 09:43:20;;;;;;;34.47;7.00;;;;;;;5.76;100.00;99345.25;4999580;28;20030;-82
2023/12/10 09:45:45;;;;;;;38.83;10.40;;;;;;;5.90;100.00;99350.75;4985331;28;20353;-82
2023/12/10 09:48:11;;;;;;;37.13;8.03;;;;;;;5.91;100.00;99347.09;4986607;28;20042;-83
2023/12/10 09:50:38;;;;;;;34.75;9.60;;;;;;;6.01;100.00;99346.94;4991638;28;20461;-82
2023/12/10 09:53:05;;;;;;;35.10;7.32;;;;;;;5.97;100.00;99339.50;4976214;28;20030;-83
2023/12/10 09:55:30;;;;;;;21.85;6.20;;;;;;;6.09;100.00;99341.66;5007213;28;20506;-81
2023/12/10 09:57:56;;;;;;;23.80;7.10;;;;;;;6.14;100.00;99346.44;4985101;28;20053;-82
2023/12/10 10:00:21;;;;;;;19.70;6.93;;;;;;;6.04;100.00;99340.47;4981072;28;20041;-83
2023/12/10 10:02:47;;;;;;;29.83;7.72;;;;;;;6.07;100.00;99338.34;4989200;28;20070;-82
2023/12/10 10:05:12;;;;;;;31.70;7.38;;;;;;;5.88;100.00;99343.97;4996637;28;20038;-82
2023/12/10 10:07:38;;;;;;;22.77;6.60;;;;;;;6.02;100.00;99345.13;4993976;28;20049;-83
2023/12/10 10:10:05;;;;;;;24.97;7.63;;;;;;;6.11;100.00;99344.09;4992936;28;20088;-82
2023/12/10 10:12:31;;;;;;;26.58;7.20;;;;;;;6.12;100.00;99345.78;5002072;28;20351;-82
2023/12/10 10:14:58;;;;;;;30.50;7.30;;;;;;;5.99;100.00;99335.69;4992745;28;20021;-80
2023/12/10 10:17:31;;;;;;;38.17;8.98;;;;;;;6.07;100.00;99343.63;4974738;28;20038;-82
2023/12/10 10:19:57;;;;;;;33.22;9.02;;;;;;;6.07;100.00;99348.94;4996180;28;20029;-81
2023/12/10 10:22:24;;;;;;;32.67;7.03;;;;;;;6.16;100.00;99349.75;4999286;28;20061;-81
2023/12/10 10:24:53;;;;;;;29.10;8.57;;;;;;;6.23;100.00;99349.91;5004302;28;20045;-79
2023/12/10 10:27:20;;;;;;;26.23;6.90;;;;;;;6.20;100.00;99351.06;4995191;28;20143;-80
2023/12/10 10:29:45;;;;;;;28.77;7.82;;;;;;;6.24;100.00;99341.78;4991073;28;20084;-81
2023/12/10 10:32:16;;;;;;;34.03;7.30;;;;;;;6.29;100.00;99342.09;4990785;28;20041;-82
2023/12/10 10:34:46;;;;;;;30.23;7.28;;;;;;;6.36;100.00;99341.44;5006606;28;20046;-80
2023/12/10 10:37:12;;;;;;;25.10;7.00;;;;;;;6.50;100.00;99333.59;4991245;28;20414;-80
2023/12/10 10:39:38;;;;;;;30.73;7.35;;;;;;;6.41;100.00;99328.47;4974789;28;20027;-81
2023/12/10 10:42:08;;;;;;;25.95;8.23;;;;;;;6.66;100.00;99331.88;4990750;28;20056;-82
2023/12/10 10:44:36;;;;;;;21.05;7.30;;;;;;;6.41;100.00;99329.31;4998687;28;20437;-81
2023/12/10 10:47:04;;;;;;;23.25;8.25;;;;;;;6.45;100.00;99330.63;5007186;28;20148;-81
2023/12/10 10:49:31;;;;;;;25.80;6.57;;;;;;;6.33;100.00;99339.94;4988257;28;20034;-80
2023/12/10 10:51:59;;;;;;;24.30;6.80;;;;;;;6.48;100.00;99340.88;4972214;28;20108;-81
2023/12/10 10:54:24;;;;;;;25.15;7.07;;;;;;;6.42;100.00;99327.50;4968001;28;20066;-80
2023/12/10 10:56:50;;;;;;;24.42;6.45;;;;;;;6.58;100.00;99339.84;4990503;28;20127;-81
2023/12/10 10:59:32;;;;;;;28.73;7.78;;;;;;;6.48;100.00;99337.41;4990416;28;20038;-80
2023/12/10 11:02:04;;;;;;;22.30;6.57;;;;;;;6.41;100.00;99329.31;4985781;28;20033;-79
2023/12/10 11:04:34;;;;;;;25.42;7.20;;;;;;;6.28;100.00;99339.63;4990481;28;20453;-82
2023/12/10 11:07:02;;;;;;;26.77;7.68;;;;;;;6.48;100.00;99351.47;4983486;28;20030;-80
2023/12/10 11:09:30;;;;;;;52.90;22.10;;;;;;;6.29;100.00;99342.09;4989717;28;20445;-80
2023/12/10 11:11:56;;;;;;;33.20;12.27;;;;;;;6.46;100.00;99355.31;4990625;28;20057;-80
2023/12/10 11:14:22;;;;;;;27.40;7.30;;;;;;;6.48;100.00;99356.78;4968213;28;20065;-80
2023/12/10 11:17:02;;;;;;;;;;;;;;;6.48;100.00;99350.66;4979027;28;20159;-81
2023/12/10 11:19:28;;;;;;;22.50;5.60;;;;;;;6.63;100.00;99353.47;4981457;28;20368;-80
2023/12/10 11:21:56;;;;;;;23.13;5.70;;;;;;;6.57;100.00;99359.44;4997098;28;20038;-80